Arkansaw, WI

10:56 PM CDT on May 29, 2015 (GMT -0500)
SIGHT-SEA-ER II | | Change Station
CLOSE
Current Station
Personal Weather Station
Location: Lake City, MN
Elevation: 728 ft
Nearby Weather Stations

Elev 728 ft 44.47 °N, 92.30 °W | Updated 14 minutes ago

Rain
Rain
61.4 °F
Feels Like 61.4 °F
N
3.0
Wind Variable Wind from NNW
Gusts 10.0 mph

Today
High -- | Low -- °F
--% Chance of Precip.
Yesterday
High -- | Low -- °F
Precip. -- in
5:28 AM 8:43 PM
Waxing Gibbous, 88% visible
Pressure 29.97 in
Visibility 10.0 miles
Clouds Mostly Cloudy 1200 ft
Overcast 1700 ft
Dew Point 60 °F
Humidity 96%
Rainfall 0.67 in
Snow Depth Not available.
UV 0 out of 12
Pollen .80 out of 12
Air Quality Not available.
Flu Activity Sporadic
METAR KRGK 300331Z AUTO 01010G17KT 10SM -RA BKN012 OVC017 15/13 A2997 RMK AO2 P0002

More Conditions Fewer Conditions

Pressure 29.97 in
Visibility 10.0 miles
Clouds Mostly Cloudy 1200 ft
Overcast 1700 ft
Dew Point 60 °F
Humidity 96%
Rainfall 0.67 in
Snow Depth Not available.
UV 0 out of 12
Pollen .80 out of 12
Air Quality Not available.
Flu Activity Sporadic
METAR KRGK 300331Z AUTO 01010G17KT 10SM -RA BKN012 OVC017 15/13 A2997 RMK AO2 P0002

More Conditions Fewer Conditions

10-Day Weather Forecast

Almanac

Astronomy

May. 29, 2015 Rise Set
Actual Time
Civil Twilight
Nautical Twilight
Astronomical Twilight
Moon
Length of Visible Light
Length of Day
Tomorrow will be .
, % of the Moon is Illuminated

Today's Extremes

State Highs State Lows

Community

WunderPhotos

Upload Photos

1,825,441 photos uploaded!

WunderBlogs® & News

Nearby

Air Quality

  Air Quality AQ Index Pollutant
Not available.

Snow Depth

Station Depth Elevation

Earthquake Activity

City Distance Mag. Time & Date
Minimum magnitude displayed is 2.5.

Coastal Water Temperatures

Place Temperature

Stations

Nearby Weather Stations

Station Location Temp. Windchill Dew Point Humidity Wind Precip. Elev Updated Type